createdAt,value
2023-01-17T05:57:54.839Z,93.84
2023-01-17T06:00:57.055Z,92.95
2023-01-17T06:03:59.056Z,93.41
2023-01-17T06:07:00.925Z,92.86
2023-01-17T06:10:03.034Z,91.97
2023-01-17T06:13:14.303Z,92.31
2023-01-17T06:16:16.184Z,92.66
2023-01-17T06:19:18.066Z,92.72
2023-01-17T06:22:19.993Z,92.43
2023-01-17T06:25:21.829Z,91.87
2023-01-17T06:28:24.200Z,91.04
2023-01-17T06:31:26.663Z,90.66
2023-01-17T06:34:28.901Z,90.36
2023-01-17T06:37:30.862Z,89.44
2023-01-17T06:40:33.328Z,89.59
2023-01-17T06:43:35.507Z,89.62
2023-01-17T06:46:57.234Z,88.97
2023-01-17T06:50:01.351Z,88.38
2023-01-17T06:53:05.281Z,88.64
2023-01-17T06:56:08.453Z,88.19
2023-01-17T06:59:10.487Z,89.13
2023-01-17T07:02:12.511Z,89.60
2023-01-17T07:05:17.641Z,89.19
2023-01-17T07:08:24.425Z,89.57
2023-01-17T07:11:28.140Z,88.82
2023-01-17T07:14:32.124Z,88.96
2023-01-17T07:17:35.056Z,89.21
2023-01-17T07:20:38.414Z,88.74
2023-01-17T07:23:41.096Z,89.18
2023-01-17T07:26:43.742Z,89.58
2023-01-17T07:29:45.660Z,88.91
2023-01-17T07:32:53.228Z,88.78
2023-01-17T07:35:55.209Z,89.32
2023-01-17T07:38:57.199Z,89.35
2023-01-17T07:41:59.304Z,89.45
2023-01-17T07:45:02.177Z,89.49
2023-01-17T07:48:04.329Z,89.67
2023-01-17T07:51:06.392Z,89.32
2023-01-17T07:54:08.680Z,88.72
2023-01-17T07:57:13.432Z,89.22
2023-01-17T08:00:16.491Z,89.01
2023-01-17T08:03:19.696Z,89.00
2023-01-17T08:06:25.144Z,88.95
2023-01-17T08:09:27.101Z,88.13
2023-01-17T08:12:29.621Z,88.24
2023-01-17T08:15:31.485Z,87.98
2023-01-17T08:18:33.701Z,88.14
2023-01-17T08:21:35.549Z,88.86
2023-01-17T08:24:37.869Z,88.13
2023-01-17T08:27:40.201Z,88.78
2023-01-17T08:30:42.114Z,89.12
2023-01-17T08:33:44.311Z,88.78
2023-01-17T08:36:47.954Z,88.84
2023-01-17T08:39:50.114Z,88.83
2023-01-17T08:42:56.292Z,88.80
2023-01-17T08:45:58.300Z,88.93
2023-01-17T08:49:01.306Z,88.30
2023-01-17T08:52:03.256Z,87.95
2023-01-17T08:55:06.018Z,88.95
2023-01-17T08:58:08.454Z,88.64
2023-01-17T09:01:10.552Z,87.89
2023-01-17T09:04:13.223Z,88.41
2023-01-17T09:07:16.858Z,89.51
2023-01-17T09:10:18.968Z,88.66
2023-01-17T09:13:21.280Z,87.57
2023-01-17T09:16:23.228Z,87.33
2023-01-17T09:19:25.201Z,86.83
2023-01-17T09:22:27.299Z,86.88
2023-01-17T09:25:29.309Z,88.36
2023-01-17T09:28:31.294Z,87.89
2023-01-17T09:31:33.261Z,88.44
2023-01-17T09:34:35.209Z,88.88
2023-01-17T09:37:37.172Z,88.56
2023-01-17T09:40:45.684Z,89.13
2023-01-17T09:44:01.641Z,88.00
2023-01-17T09:47:14.107Z,86.78
2023-01-17T09:50:45.140Z,87.30
2023-01-17T09:53:47.588Z,86.00
2023-01-17T09:57:19.164Z,86.11
2023-01-17T10:00:47.917Z,84.55
2023-01-17T10:04:05.545Z,84.88
2023-01-17T10:07:21.401Z,84.53
2023-01-17T10:10:26.138Z,84.65
2023-01-17T10:13:43.889Z,83.72
2023-01-17T10:16:58.932Z,84.01
2023-01-17T10:20:20.075Z,83.99
2023-01-17T10:23:33.309Z,84.15
2023-01-17T10:26:36.718Z,84.20
2023-01-17T10:29:41.233Z,83.94
2023-01-17T10:32:49.897Z,82.87
2023-01-17T10:36:03.795Z,82.75
2023-01-17T10:39:26.372Z,82.40
2023-01-17T10:42:49.719Z,82.17
2023-01-17T10:45:54.546Z,81.51
2023-01-17T10:53:10.129Z,82.39
2023-01-17T10:56:15.472Z,81.83
2023-01-17T10:59:26.292Z,81.60
2023-01-17T11:02:36.907Z,79.78
2023-01-17T11:05:41.210Z,79.71
2023-01-17T11:09:02.216Z,79.25
2023-01-17T11:12:05.017Z,79.80
2023-01-17T11:15:09.727Z,80.05
2023-01-17T11:18:20.494Z,79.26
2023-01-17T11:21:24.608Z,80.07
2023-01-17T11:24:30.453Z,80.34
2023-01-17T11:27:35.110Z,78.84
2023-01-17T11:30:37.157Z,78.08
2023-01-17T11:33:45.506Z,78.26
2023-01-17T11:36:47.448Z,78.46
2023-01-17T11:39:49.389Z,78.64
2023-01-17T11:43:01.862Z,78.47
2023-01-17T11:46:24.493Z,78.70
2023-01-17T11:49:26.583Z,78.30
2023-01-17T11:52:39.133Z,77.65
2023-01-17T11:56:11.910Z,77.53
2023-01-17T11:59:34.734Z,77.29
2023-01-17T12:02:55.108Z,77.47
2023-01-17T12:06:13.676Z,76.11
2023-01-17T12:09:35.902Z,77.19
2023-01-17T12:13:29.155Z,76.80
2023-01-17T12:16:57.849Z,76.90
2023-01-17T12:20:06.089Z,76.63
2023-01-17T12:23:13.942Z,76.58
2023-01-17T12:26:31.123Z,77.62
2023-01-17T12:30:08.358Z,77.40
2023-01-17T12:33:37.769Z,78.23
2023-01-17T12:36:51.458Z,77.02
2023-01-17T12:40:13.607Z,76.69
2023-01-17T12:43:37.015Z,78.31
2023-01-17T12:46:50.614Z,77.69
2023-01-17T12:49:56.525Z,79.15
2023-01-17T12:53:14.661Z,78.99
2023-01-17T12:56:24.346Z,77.87
2023-01-17T13:00:00.947Z,78.30
2023-01-17T13:03:37.115Z,77.02
2023-01-17T13:07:04.477Z,77.21
2023-01-17T13:10:31.827Z,76.70
2023-01-17T13:13:35.752Z,75.95
2023-01-17T13:16:47.140Z,76.58
2023-01-17T13:19:59.351Z,77.22
2023-01-17T13:23:12.406Z,75.56
2023-01-17T13:26:24.605Z,75.67
2023-01-17T13:29:47.996Z,75.18
2023-01-17T13:33:07.163Z,75.57
2023-01-17T13:36:29.895Z,75.37
2023-01-17T13:40:18.035Z,75.66
2023-01-17T13:43:25.837Z,76.51
2023-01-17T13:46:31.374Z,75.86
2023-01-17T13:49:42.733Z,76.35
2023-01-17T13:52:44.760Z,76.18
2023-01-17T13:55:53.221Z,74.58
2023-01-17T13:58:58.540Z,76.25
2023-01-17T14:02:01.142Z,76.38
2023-01-17T14:05:09.188Z,76.35
2023-01-17T14:08:21.902Z,76.62
2023-01-17T14:11:23.933Z,77.32
2023-01-17T14:14:44.362Z,77.39
2023-01-17T14:17:52.014Z,76.97
2023-01-17T14:21:05.633Z,77.08
2023-01-17T14:24:10.610Z,78.51
2023-01-17T14:27:34.695Z,80.33
2023-01-17T14:30:59.589Z,80.37
2023-01-17T14:34:22.784Z,78.63
2023-01-17T14:37:42.133Z,79.37
2023-01-17T14:40:55.720Z,79.51
2023-01-17T14:44:37.458Z,80.18
2023-01-17T14:48:39.085Z,80.93
2023-01-17T14:52:40.740Z,80.57
2023-01-17T14:56:11.963Z,80.95
2023-01-17T14:59:17.436Z,80.71
2023-01-17T15:02:19.881Z,80.58
2023-01-17T15:05:25.385Z,80.99
2023-01-17T15:08:34.540Z,81.14
2023-01-17T15:11:36.915Z,81.22
2023-01-17T15:14:43.169Z,80.90
2023-01-17T15:18:19.457Z,81.16
2023-01-17T15:21:24.822Z,82.17
2023-01-17T15:24:34.390Z,82.34
2023-01-17T15:27:38.035Z,82.52
2023-01-17T15:31:10.915Z,82.96
2023-01-17T15:34:34.728Z,83.72
2023-01-17T15:37:40.044Z,83.88
2023-01-17T15:40:45.724Z,83.66
2023-01-17T15:43:48.080Z,82.81
2023-01-17T15:46:50.345Z,83.23
2023-01-17T15:49:52.523Z,83.04
2023-01-17T15:52:58.038Z,82.78
2023-01-17T15:56:00.828Z,82.92
2023-01-17T15:59:28.577Z,83.04
2023-01-17T16:02:43.365Z,82.42
2023-01-17T16:05:46.386Z,82.51
2023-01-17T16:08:54.544Z,82.90
2023-01-17T16:11:56.993Z,82.88
2023-01-17T16:15:11.825Z,83.23
2023-01-17T16:18:20.219Z,84.30
2023-01-17T16:21:25.905Z,84.52
2023-01-17T16:24:28.066Z,85.45
2023-01-17T16:27:29.994Z,85.01
2023-01-17T16:30:32.987Z,86.19
2023-01-17T16:33:35.269Z,85.98
2023-01-17T16:36:37.329Z,86.50
2023-01-17T16:39:39.804Z,86.71
2023-01-17T16:42:42.716Z,85.96
2023-01-17T16:45:50.502Z,86.47
2023-01-17T16:52:12.280Z,86.64
2023-01-17T16:55:16.052Z,86.68
2023-01-17T16:58:20.348Z,87.44
2023-01-17T17:01:22.967Z,87.78
2023-01-17T17:04:25.173Z,87.78
2023-01-17T17:07:27.190Z,88.02
2023-01-17T17:10:29.554Z,87.35
2023-01-17T17:13:35.131Z,87.29
2023-01-17T17:16:37.232Z,87.50
2023-01-17T17:19:39.737Z,87.06
2023-01-17T17:22:44.035Z,88.13
2023-01-17T17:25:45.944Z,87.47
2023-01-17T17:28:52.561Z,87.92
2023-01-17T17:31:54.901Z,87.71
2023-01-17T17:34:56.876Z,87.83
2023-01-17T17:37:58.961Z,87.94
2023-01-17T17:41:09.826Z,87.81
2023-01-17T17:44:12.449Z,87.56
2023-01-17T17:47:16.135Z,87.13
2023-01-17T17:50:18.481Z,87.48
2023-01-17T17:53:21.819Z,87.46
2023-01-17T17:56:24.116Z,87.42
2023-01-17T17:59:26.724Z,86.95
2023-01-17T18:02:28.889Z,86.91
2023-01-17T18:05:30.940Z,86.55
2023-01-17T18:08:33.991Z,87.03
2023-01-17T18:11:38.177Z,86.69
2023-01-17T18:14:40.402Z,86.54
2023-01-17T18:17:42.305Z,86.70
2023-01-17T18:20:44.632Z,86.97
2023-01-17T18:23:46.570Z,87.36
2023-01-17T18:26:51.748Z,87.55
2023-01-17T18:29:53.927Z,87.42
2023-01-17T18:32:56.137Z,87.58
2023-01-17T18:36:00.105Z,87.19
2023-01-17T18:39:13.357Z,88.29
2023-01-17T18:42:15.845Z,88.10
2023-01-17T18:45:18.343Z,88.78
2023-01-17T18:48:20.700Z,88.54
2023-01-17T18:51:23.285Z,88.96
2023-01-17T18:54:27.865Z,89.25
2023-01-17T20:45:28.857Z,92.59
2023-01-17T20:48:30.953Z,92.21
2023-01-17T20:51:38.443Z,92.82
2023-01-17T20:54:43.240Z,93.09
2023-01-17T20:57:45.097Z,93.01
2023-01-17T21:00:47.904Z,93.00
2023-01-17T21:03:51.748Z,93.08
2023-01-17T21:06:54.634Z,93.23
2023-01-17T21:09:57.505Z,93.16
2023-01-17T21:12:59.868Z,93.15
2023-01-17T21:16:02.519Z,93.08
2023-01-17T21:19:05.507Z,93.14
2023-01-17T21:22:07.373Z,93.75
2023-01-17T21:25:10.058Z,93.64
2023-01-17T21:28:12.092Z,93.84
2023-01-17T21:31:36.657Z,93.54
2023-01-17T21:34:38.509Z,93.72
2023-01-17T21:37:41.131Z,93.93
2023-01-17T21:40:44.092Z,93.88
2023-01-17T21:43:46.057Z,93.49
2023-01-17T21:46:48.669Z,93.62
2023-01-17T21:49:50.658Z,93.34
2023-01-17T21:52:53.037Z,93.02
2023-01-17T21:56:18.599Z,92.39
2023-01-17T21:59:20.454Z,92.50
2023-01-17T22:02:22.536Z,93.04
2023-01-17T22:05:24.382Z,93.29
2023-01-17T22:08:31.842Z,93.05
2023-01-17T22:11:36.696Z,92.76
2023-01-17T22:14:39.245Z,92.31
2023-01-17T22:17:42.365Z,92.81
2023-01-17T22:20:44.343Z,92.33
2023-01-17T22:23:50.287Z,92.31
2023-01-17T22:26:52.097Z,92.28
2023-01-17T22:29:54.202Z,92.67
2023-01-17T22:32:57.234Z,92.66
2023-01-17T22:35:59.584Z,92.46
2023-01-17T22:39:01.841Z,91.56
2023-01-17T22:42:03.930Z,92.07
2023-01-17T22:45:10.433Z,92.04
2023-01-17T22:48:12.302Z,91.98
2023-01-17T22:51:16.860Z,91.97
2023-01-17T22:54:19.550Z,92.22
2023-01-17T22:57:23.155Z,92.54
2023-01-17T23:00:25.136Z,93.02
2023-01-17T23:03:27.338Z,92.92
2023-01-17T23:06:34.313Z,93.20
2023-01-17T23:09:36.805Z,93.06
2023-01-17T23:12:39.102Z,92.81
2023-01-17T23:15:59.160Z,93.23
2023-01-17T23:19:19.701Z,93.01
2023-01-17T23:22:24.078Z,93.20
2023-01-17T23:25:25.933Z,93.34
2023-01-17T23:28:27.756Z,92.89
2023-01-17T23:31:29.669Z,93.17
2023-01-17T23:34:31.485Z,93.03
2023-01-17T23:37:51.693Z,92.90
2023-01-17T23:41:17.424Z,93.45
2023-01-17T23:44:19.312Z,93.20
2023-01-17T23:47:21.272Z,93.38
2023-01-17T23:50:23.244Z,93.44
2023-01-17T23:53:26.131Z,93.22
2023-01-17T23:56:28.053Z,93.71
2023-01-17T23:59:30.236Z,93.69
